sensor_id;sensor_type;location;lat;lon;timestamp;P1;durP1;ratioP1;P2;durP2;ratioP2
1410;SDS011;700;51.906;8.404;2022-11-24T00:00:14;5.77;;;2.83;;
1410;SDS011;700;51.906;8.404;2022-11-24T00:05:16;7.50;;;4.10;;
1410;SDS011;700;51.906;8.404;2022-11-24T00:10:19;3.80;;;3.00;;
1410;SDS011;700;51.906;8.404;2022-11-24T00:15:22;7.47;;;3.50;;
1410;SDS011;700;51.906;8.404;2022-11-24T00:20:22;10.20;;;3.90;;
1410;SDS011;700;51.906;8.404;2022-11-24T00:25:23;6.63;;;4.10;;
1410;SDS011;700;51.906;8.404;2022-11-24T00:30:26;7.53;;;3.63;;
1410;SDS011;700;51.906;8.404;2022-11-24T00:35:26;7.13;;;3.83;;
1410;SDS011;700;51.906;8.404;2022-11-24T00:40:27;13.23;;;5.30;;
1410;SDS011;700;51.906;8.404;2022-11-24T00:45:30;7.53;;;4.40;;
1410;SDS011;700;51.906;8.404;2022-11-24T00:50:33;7.67;;;4.10;;
1410;SDS011;700;51.906;8.404;2022-11-24T00:55:34;5.87;;;4.40;;
1410;SDS011;700;51.906;8.404;2022-11-24T01:00:37;5.30;;;3.90;;
1410;SDS011;700;51.906;8.404;2022-11-24T01:05:40;5.10;;;4.10;;
1410;SDS011;700;51.906;8.404;2022-11-24T01:10:43;8.10;;;4.57;;
1410;SDS011;700;51.906;8.404;2022-11-24T01:15:44;8.20;;;4.13;;
1410;SDS011;700;51.906;8.404;2022-11-24T01:20:44;8.67;;;4.17;;
1410;SDS011;700;51.906;8.404;2022-11-24T01:25:47;11.90;;;4.60;;
1410;SDS011;700;51.906;8.404;2022-11-24T01:31:06;7.50;;;4.00;;
1410;SDS011;700;51.906;8.404;2022-11-24T01:36:08;9.20;;;4.80;;
1410;SDS011;700;51.906;8.404;2022-11-24T01:41:13;6.97;;;3.90;;
1410;SDS011;700;51.906;8.404;2022-11-24T01:51:21;12.97;;;4.87;;
1410;SDS011;700;51.906;8.404;2022-11-24T01:56:24;9.40;;;5.30;;
1410;SDS011;700;51.906;8.404;2022-11-24T02:01:25;7.97;;;4.83;;
1410;SDS011;700;51.906;8.404;2022-11-24T02:06:28;19.77;;;5.77;;
1410;SDS011;700;51.906;8.404;2022-11-24T02:11:34;10.53;;;5.50;;
1410;SDS011;700;51.906;8.404;2022-11-24T02:16:37;6.63;;;4.60;;
1410;SDS011;700;51.906;8.404;2022-11-24T02:21:40;11.77;;;5.07;;
1410;SDS011;700;51.906;8.404;2022-11-24T02:26:43;13.23;;;5.43;;
1410;SDS011;700;51.906;8.404;2022-11-24T02:31:47;13.13;;;4.93;;
1410;SDS011;700;51.906;8.404;2022-11-24T02:36:51;11.97;;;4.77;;
1410;SDS011;700;51.906;8.404;2022-11-24T02:42:01;19.50;;;5.50;;
1410;SDS011;700;51.906;8.404;2022-11-24T02:47:05;16.00;;;6.50;;
1410;SDS011;700;51.906;8.404;2022-11-24T02:52:08;13.07;;;4.60;;
1410;SDS011;700;51.906;8.404;2022-11-24T02:57:11;13.83;;;4.13;;
1410;SDS011;700;51.906;8.404;2022-11-24T03:02:16;10.43;;;4.00;;
1410;SDS011;700;51.906;8.404;2022-11-24T03:07:19;12.70;;;5.87;;
1410;SDS011;700;51.906;8.404;2022-11-24T03:12:20;12.13;;;5.13;;
1410;SDS011;700;51.906;8.404;2022-11-24T03:17:21;18.47;;;6.10;;
1410;SDS011;700;51.906;8.404;2022-11-24T03:22:21;19.03;;;6.43;;
1410;SDS011;700;51.906;8.404;2022-11-24T03:27:22;14.83;;;5.23;;
1410;SDS011;700;51.906;8.404;2022-11-24T03:32:22;14.83;;;5.37;;
1410;SDS011;700;51.906;8.404;2022-11-24T03:37:25;12.90;;;4.30;;
1410;SDS011;700;51.906;8.404;2022-11-24T03:42:27;12.93;;;3.87;;
1410;SDS011;700;51.906;8.404;2022-11-24T03:47:27;15.53;;;4.60;;
1410;SDS011;700;51.906;8.404;2022-11-24T03:52:28;12.07;;;3.90;;
1410;SDS011;700;51.906;8.404;2022-11-24T03:57:31;12.77;;;3.60;;
1410;SDS011;700;51.906;8.404;2022-11-24T04:02:34;11.57;;;4.20;;
1410;SDS011;700;51.906;8.404;2022-11-24T04:07:34;11.00;;;4.20;;
1410;SDS011;700;51.906;8.404;2022-11-24T04:12:37;16.07;;;4.20;;
1410;SDS011;700;51.906;8.404;2022-11-24T04:17:47;12.63;;;4.50;;
1410;SDS011;700;51.906;8.404;2022-11-24T04:22:51;12.20;;;4.80;;
1410;SDS011;700;51.906;8.404;2022-11-24T04:27:54;15.37;;;4.20;;
1410;SDS011;700;51.906;8.404;2022-11-24T04:32:55;8.87;;;3.20;;
1410;SDS011;700;51.906;8.404;2022-11-24T04:37:56;15.83;;;4.87;;
1410;SDS011;700;51.906;8.404;2022-11-24T04:43:00;15.33;;;4.40;;
1410;SDS011;700;51.906;8.404;2022-11-24T04:48:01;13.53;;;4.07;;
1410;SDS011;700;51.906;8.404;2022-11-24T04:53:02;21.90;;;4.70;;
1410;SDS011;700;51.906;8.404;2022-11-24T04:58:02;11.23;;;3.80;;
1410;SDS011;700;51.906;8.404;2022-11-24T05:03:03;14.13;;;4.17;;
1410;SDS011;700;51.906;8.404;2022-11-24T05:08:04;14.03;;;3.83;;
1410;SDS011;700;51.906;8.404;2022-11-24T05:13:08;16.93;;;3.77;;
1410;SDS011;700;51.906;8.404;2022-11-24T05:18:12;18.43;;;4.37;;
1410;SDS011;700;51.906;8.404;2022-11-24T05:23:15;13.30;;;4.00;;
1410;SDS011;700;51.906;8.404;2022-11-24T05:28:18;19.80;;;4.40;;
1410;SDS011;700;51.906;8.404;2022-11-24T05:33:21;9.50;;;3.50;;
1410;SDS011;700;51.906;8.404;2022-11-24T05:38:22;12.63;;;3.70;;
1410;SDS011;700;51.906;8.404;2022-11-24T05:43:25;10.07;;;3.93;;
1410;SDS011;700;51.906;8.404;2022-11-24T05:48:26;18.83;;;4.70;;
1410;SDS011;700;51.906;8.404;2022-11-24T05:53:29;11.60;;;3.40;;
1410;SDS011;700;51.906;8.404;2022-11-24T05:58:30;18.07;;;5.23;;
1410;SDS011;700;51.906;8.404;2022-11-24T06:03:30;13.53;;;3.60;;
1410;SDS011;700;51.906;8.404;2022-11-24T06:08:33;15.23;;;3.83;;
1410;SDS011;700;51.906;8.404;2022-11-24T06:13:36;8.73;;;3.40;;
1410;SDS011;700;51.906;8.404;2022-11-24T06:18:36;11.13;;;3.90;;
1410;SDS011;700;51.906;8.404;2022-11-24T06:23:39;10.53;;;4.00;;
1410;SDS011;700;51.906;8.404;2022-11-24T06:28:40;12.07;;;3.70;;
1410;SDS011;700;51.906;8.404;2022-11-24T06:33:43;23.20;;;5.10;;
1410;SDS011;700;51.906;8.404;2022-11-24T06:38:44;8.77;;;3.60;;
1410;SDS011;700;51.906;8.404;2022-11-24T06:43:47;11.63;;;4.40;;
1410;SDS011;700;51.906;8.404;2022-11-24T06:48:50;14.23;;;3.93;;
1410;SDS011;700;51.906;8.404;2022-11-24T06:53:53;18.33;;;4.50;;
1410;SDS011;700;51.906;8.404;2022-11-24T06:58:54;17.97;;;4.27;;
1410;SDS011;700;51.906;8.404;2022-11-24T07:03:57;15.37;;;4.23;;
1410;SDS011;700;51.906;8.404;2022-11-24T07:09:00;13.10;;;3.80;;
1410;SDS011;700;51.906;8.404;2022-11-24T07:14:03;14.27;;;4.00;;
1410;SDS011;700;51.906;8.404;2022-11-24T07:19:09;18.80;;;5.17;;
1410;SDS011;700;51.906;8.404;2022-11-24T07:24:10;13.90;;;4.50;;
1410;SDS011;700;51.906;8.404;2022-11-24T07:29:11;10.50;;;3.40;;
1410;SDS011;700;51.906;8.404;2022-11-24T07:34:14;15.67;;;4.63;;
1410;SDS011;700;51.906;8.404;2022-11-24T07:39:17;12.50;;;3.67;;
1410;SDS011;700;51.906;8.404;2022-11-24T07:44:17;19.10;;;4.73;;
1410;SDS011;700;51.906;8.404;2022-11-24T07:49:20;18.20;;;3.90;;
1410;SDS011;700;51.906;8.404;2022-11-24T07:54:24;15.17;;;3.70;;
1410;SDS011;700;51.906;8.404;2022-11-24T07:59:27;18.13;;;4.20;;
1410;SDS011;700;51.906;8.404;2022-11-24T08:04:28;14.80;;;4.00;;
1410;SDS011;700;51.906;8.404;2022-11-24T08:09:28;12.60;;;4.53;;
1410;SDS011;700;51.906;8.404;2022-11-24T08:14:29;12.83;;;4.47;;
1410;SDS011;700;51.906;8.404;2022-11-24T08:19:29;15.67;;;4.00;;
1410;SDS011;700;51.906;8.404;2022-11-24T08:24:33;8.07;;;4.20;;
1410;SDS011;700;51.906;8.404;2022-11-24T08:29:34;15.13;;;4.33;;
1410;SDS011;700;51.906;8.404;2022-11-24T08:34:37;11.90;;;4.10;;
1410;SDS011;700;51.906;8.404;2022-11-24T08:39:38;13.83;;;4.30;;
1410;SDS011;700;51.906;8.404;2022-11-24T08:44:38;11.10;;;4.00;;
1410;SDS011;700;51.906;8.404;2022-11-24T08:49:39;11.87;;;5.47;;
1410;SDS011;700;51.906;8.404;2022-11-24T08:54:45;14.03;;;4.40;;
1410;SDS011;700;51.906;8.404;2022-11-24T08:59:48;12.50;;;4.20;;
1410;SDS011;700;51.906;8.404;2022-11-24T09:04:48;10.53;;;4.40;;
1410;SDS011;700;51.906;8.404;2022-11-24T09:09:51;12.43;;;4.60;;
1410;SDS011;700;51.906;8.404;2022-11-24T09:14:52;12.67;;;4.73;;
1410;SDS011;700;51.906;8.404;2022-11-24T09:19:55;20.03;;;4.87;;
1410;SDS011;700;51.906;8.404;2022-11-24T09:24:58;16.17;;;4.27;;
1410;SDS011;700;51.906;8.404;2022-11-24T09:29:58;19.00;;;5.07;;
1410;SDS011;700;51.906;8.404;2022-11-24T09:34:59;13.20;;;4.33;;
1410;SDS011;700;51.906;8.404;2022-11-24T09:39:59;10.37;;;3.63;;
1410;SDS011;700;51.906;8.404;2022-11-24T09:50:39;10.37;;;3.80;;
1410;SDS011;700;51.906;8.404;2022-11-24T09:55:47;18.47;;;4.70;;
1410;SDS011;700;51.906;8.404;2022-11-24T10:00:52;11.90;;;3.90;;
1410;SDS011;700;51.906;8.404;2022-11-24T10:05:55;6.67;;;2.87;;
1410;SDS011;700;51.906;8.404;2022-11-24T10:10:59;9.33;;;2.43;;
1410;SDS011;700;51.906;8.404;2022-11-24T10:16:05;7.03;;;2.63;;
1410;SDS011;700;51.906;8.404;2022-11-24T10:26:49;8.67;;;3.13;;
1410;SDS011;700;51.906;8.404;2022-11-24T10:31:55;5.57;;;2.90;;
1410;SDS011;700;51.906;8.404;2022-11-24T10:42:28;5.93;;;3.20;;
1410;SDS011;700;51.906;8.404;2022-11-24T10:47:31;17.90;;;3.73;;
1410;SDS011;700;51.906;8.404;2022-11-24T10:52:33;9.43;;;3.43;;
1410;SDS011;700;51.906;8.404;2022-11-24T10:57:39;10.00;;;4.43;;
1410;SDS011;700;51.906;8.404;2022-11-24T11:02:40;6.90;;;3.40;;
1410;SDS011;700;51.906;8.404;2022-11-24T11:07:44;7.57;;;3.30;;
1410;SDS011;700;51.906;8.404;2022-11-24T11:12:47;6.10;;;3.03;;
1410;SDS011;700;51.906;8.404;2022-11-24T11:17:50;6.30;;;3.10;;
1410;SDS011;700;51.906;8.404;2022-11-24T11:22:56;3.87;;;3.10;;
1410;SDS011;700;51.906;8.404;2022-11-24T11:33:33;6.63;;;3.60;;
1410;SDS011;700;51.906;8.404;2022-11-24T11:38:37;7.30;;;4.53;;
1410;SDS011;700;51.906;8.404;2022-11-24T11:43:42;7.10;;;3.83;;
1410;SDS011;700;51.906;8.404;2022-11-24T11:48:44;5.20;;;3.70;;
1410;SDS011;700;51.906;8.404;2022-11-24T12:04:40;13.63;;;4.27;;
1410;SDS011;700;51.906;8.404;2022-11-24T12:25:39;7.43;;;4.67;;
1410;SDS011;700;51.906;8.404;2022-11-24T12:36:31;9.53;;;5.40;;
1410;SDS011;700;51.906;8.404;2022-11-24T12:47:12;10.73;;;5.53;;
1410;SDS011;700;51.906;8.404;2022-11-24T12:52:24;6.73;;;5.67;;
1410;SDS011;700;51.906;8.404;2022-11-24T12:57:41;9.17;;;5.57;;
1410;SDS011;700;51.906;8.404;2022-11-24T13:08:12;9.50;;;6.23;;
1410;SDS011;700;51.906;8.404;2022-11-24T13:13:14;9.27;;;6.27;;
1410;SDS011;700;51.906;8.404;2022-11-24T13:23:54;9.57;;;5.80;;
1410;SDS011;700;51.906;8.404;2022-11-24T13:29:03;8.23;;;6.10;;
1410;SDS011;700;51.906;8.404;2022-11-24T13:34:35;10.47;;;5.90;;
1410;SDS011;700;51.906;8.404;2022-11-24T13:39:50;10.87;;;6.50;;
1410;SDS011;700;51.906;8.404;2022-11-24T13:45:07;10.97;;;6.53;;
1410;SDS011;700;51.906;8.404;2022-11-24T13:56:01;12.60;;;6.20;;
1410;SDS011;700;51.906;8.404;2022-11-24T14:01:13;8.00;;;6.50;;
1410;SDS011;700;51.906;8.404;2022-11-24T14:11:56;12.80;;;7.70;;
1410;SDS011;700;51.906;8.404;2022-11-24T14:17:12;14.27;;;8.43;;
1410;SDS011;700;51.906;8.404;2022-11-24T14:22:15;15.00;;;7.90;;
1410;SDS011;700;51.906;8.404;2022-11-24T14:27:25;11.90;;;8.20;;
1410;SDS011;700;51.906;8.404;2022-11-24T14:32:30;13.07;;;8.53;;
1410;SDS011;700;51.906;8.404;2022-11-24T14:37:31;10.93;;;8.83;;
1410;SDS011;700;51.906;8.404;2022-11-24T14:42:31;34.47;;;8.77;;
1410;SDS011;700;51.906;8.404;2022-11-24T14:47:35;13.93;;;7.50;;
1410;SDS011;700;51.906;8.404;2022-11-24T14:52:53;22.33;;;7.97;;
1410;SDS011;700;51.906;8.404;2022-11-24T14:57:55;12.03;;;7.30;;
1410;SDS011;700;51.906;8.404;2022-11-24T15:08:01;12.80;;;7.17;;
1410;SDS011;700;51.906;8.404;2022-11-24T15:13:03;16.23;;;6.83;;
1410;SDS011;700;51.906;8.404;2022-11-24T15:23:40;12.83;;;8.10;;
1410;SDS011;700;51.906;8.404;2022-11-24T15:28:44;11.33;;;5.17;;
1410;SDS011;700;51.906;8.404;2022-11-24T15:33:45;8.60;;;6.70;;
1410;SDS011;700;51.906;8.404;2022-11-24T15:38:48;10.20;;;6.93;;
1410;SDS011;700;51.906;8.404;2022-11-24T15:43:51;14.20;;;7.90;;
1410;SDS011;700;51.906;8.404;2022-11-24T15:48:57;13.37;;;7.77;;
1410;SDS011;700;51.906;8.404;2022-11-24T15:53:58;12.87;;;7.03;;
1410;SDS011;700;51.906;8.404;2022-11-24T15:59:01;12.37;;;7.10;;
1410;SDS011;700;51.906;8.404;2022-11-24T16:04:05;14.70;;;8.10;;
1410;SDS011;700;51.906;8.404;2022-11-24T16:09:09;18.23;;;8.83;;
1410;SDS011;700;51.906;8.404;2022-11-24T16:14:13;11.10;;;8.17;;
1410;SDS011;700;51.906;8.404;2022-11-24T16:19:16;14.27;;;7.77;;
1410;SDS011;700;51.906;8.404;2022-11-24T16:24:16;21.70;;;10.20;;
1410;SDS011;700;51.906;8.404;2022-11-24T16:29:19;20.63;;;11.70;;
1410;SDS011;700;51.906;8.404;2022-11-24T16:34:23;15.50;;;11.50;;
1410;SDS011;700;51.906;8.404;2022-11-24T16:39:26;19.43;;;11.87;;
1410;SDS011;700;51.906;8.404;2022-11-24T16:44:27;19.87;;;10.17;;
1410;SDS011;700;51.906;8.404;2022-11-24T16:49:27;21.57;;;11.30;;
1410;SDS011;700;51.906;8.404;2022-11-24T16:54:32;21.90;;;11.63;;
1410;SDS011;700;51.906;8.404;2022-11-24T16:59:33;17.33;;;11.67;;
1410;SDS011;700;51.906;8.404;2022-11-24T17:04:36;22.57;;;12.60;;
1410;SDS011;700;51.906;8.404;2022-11-24T17:09:37;18.20;;;10.47;;
1410;SDS011;700;51.906;8.404;2022-11-24T17:14:37;14.63;;;10.03;;
1410;SDS011;700;51.906;8.404;2022-11-24T17:19:38;11.87;;;8.80;;
1410;SDS011;700;51.906;8.404;2022-11-24T17:24:41;17.70;;;10.23;;
1410;SDS011;700;51.906;8.404;2022-11-24T17:29:41;14.13;;;7.90;;
1410;SDS011;700;51.906;8.404;2022-11-24T17:34:44;27.90;;;11.40;;
1410;SDS011;700;51.906;8.404;2022-11-24T17:39:45;19.63;;;12.90;;
1410;SDS011;700;51.906;8.404;2022-11-24T17:44:46;19.73;;;12.37;;
1410;SDS011;700;51.906;8.404;2022-11-24T17:49:49;13.43;;;8.63;;
1410;SDS011;700;51.906;8.404;2022-11-24T17:54:49;15.17;;;9.00;;
1410;SDS011;700;51.906;8.404;2022-11-24T17:59:56;20.50;;;10.50;;
1410;SDS011;700;51.906;8.404;2022-11-24T18:05:01;20.70;;;12.30;;
1410;SDS011;700;51.906;8.404;2022-11-24T18:10:02;17.60;;;10.80;;
1410;SDS011;700;51.906;8.404;2022-11-24T18:15:03;15.93;;;10.63;;
1410;SDS011;700;51.906;8.404;2022-11-24T18:20:04;17.77;;;11.27;;
1410;SDS011;700;51.906;8.404;2022-11-24T18:25:06;17.70;;;10.33;;
1410;SDS011;700;51.906;8.404;2022-11-24T18:30:09;14.93;;;10.63;;
1410;SDS011;700;51.906;8.404;2022-11-24T18:35:10;20.67;;;11.77;;
1410;SDS011;700;51.906;8.404;2022-11-24T18:40:10;18.57;;;13.83;;
1410;SDS011;700;51.906;8.404;2022-11-24T18:45:13;19.50;;;11.57;;
1410;SDS011;700;51.906;8.404;2022-11-24T18:50:17;20.53;;;10.60;;
1410;SDS011;700;51.906;8.404;2022-11-24T18:55:19;19.17;;;11.80;;
1410;SDS011;700;51.906;8.404;2022-11-24T19:00:20;17.77;;;10.30;;
1410;SDS011;700;51.906;8.404;2022-11-24T19:05:24;17.57;;;9.60;;
1410;SDS011;700;51.906;8.404;2022-11-24T19:10:25;14.93;;;9.33;;
1410;SDS011;700;51.906;8.404;2022-11-24T19:15:26;15.73;;;10.23;;
1410;SDS011;700;51.906;8.404;2022-11-24T19:20:31;28.30;;;11.87;;
1410;SDS011;700;51.906;8.404;2022-11-24T19:25:33;22.30;;;14.00;;
1410;SDS011;700;51.906;8.404;2022-11-24T19:30:36;22.97;;;14.37;;
1410;SDS011;700;51.906;8.404;2022-11-24T19:35:39;20.80;;;13.53;;
1410;SDS011;700;51.906;8.404;2022-11-24T19:40:40;26.63;;;13.63;;
1410;SDS011;700;51.906;8.404;2022-11-24T19:45:40;23.37;;;12.53;;
1410;SDS011;700;51.906;8.404;2022-11-24T19:50:43;19.13;;;12.40;;
1410;SDS011;700;51.906;8.404;2022-11-24T19:55:46;15.27;;;11.03;;
1410;SDS011;700;51.906;8.404;2022-11-24T20:00:49;14.67;;;10.20;;
1410;SDS011;700;51.906;8.404;2022-11-24T20:05:55;23.10;;;12.23;;
1410;SDS011;700;51.906;8.404;2022-11-24T20:16:03;17.83;;;11.80;;
1410;SDS011;700;51.906;8.404;2022-11-24T20:26:18;23.40;;;12.13;;
1410;SDS011;700;51.906;8.404;2022-11-24T20:31:32;24.03;;;12.77;;
1410;SDS011;700;51.906;8.404;2022-11-24T20:36:36;22.97;;;12.57;;
1410;SDS011;700;51.906;8.404;2022-11-24T20:41:41;16.00;;;11.73;;
1410;SDS011;700;51.906;8.404;2022-11-24T20:46:44;19.23;;;11.60;;
1410;SDS011;700;51.906;8.404;2022-11-24T20:51:48;24.70;;;14.23;;
1410;SDS011;700;51.906;8.404;2022-11-24T20:56:53;25.83;;;13.90;;
1410;SDS011;700;51.906;8.404;2022-11-24T21:01:54;22.23;;;12.63;;
1410;SDS011;700;51.906;8.404;2022-11-24T21:06:54;18.73;;;12.60;;
1410;SDS011;700;51.906;8.404;2022-11-24T21:11:55;22.63;;;13.30;;
1410;SDS011;700;51.906;8.404;2022-11-24T21:16:56;19.93;;;12.77;;
1410;SDS011;700;51.906;8.404;2022-11-24T21:21:59;21.60;;;13.63;;
1410;SDS011;700;51.906;8.404;2022-11-24T21:26:59;22.43;;;14.10;;
1410;SDS011;700;51.906;8.404;2022-11-24T21:32:02;33.93;;;18.97;;
1410;SDS011;700;51.906;8.404;2022-11-24T21:37:03;31.07;;;18.40;;
1410;SDS011;700;51.906;8.404;2022-11-24T21:42:06;26.47;;;17.40;;
1410;SDS011;700;51.906;8.404;2022-11-24T21:47:09;21.70;;;14.27;;
1410;SDS011;700;51.906;8.404;2022-11-24T21:52:12;25.00;;;13.13;;
1410;SDS011;700;51.906;8.404;2022-11-24T21:57:13;24.60;;;13.40;;
1410;SDS011;700;51.906;8.404;2022-11-24T22:02:13;20.10;;;12.07;;
1410;SDS011;700;51.906;8.404;2022-11-24T22:07:16;17.70;;;11.60;;
1410;SDS011;700;51.906;8.404;2022-11-24T22:12:16;16.93;;;10.30;;
1410;SDS011;700;51.906;8.404;2022-11-24T22:17:19;16.10;;;9.93;;
1410;SDS011;700;51.906;8.404;2022-11-24T22:22:25;14.83;;;9.33;;
1410;SDS011;700;51.906;8.404;2022-11-24T22:27:30;17.20;;;9.70;;
1410;SDS011;700;51.906;8.404;2022-11-24T22:32:33;14.37;;;9.13;;
1410;SDS011;700;51.906;8.404;2022-11-24T22:37:38;15.60;;;8.90;;
1410;SDS011;700;51.906;8.404;2022-11-24T22:42:41;15.67;;;8.20;;
1410;SDS011;700;51.906;8.404;2022-11-24T22:47:44;14.87;;;7.13;;
1410;SDS011;700;51.906;8.404;2022-11-24T22:52:45;13.47;;;7.90;;
1410;SDS011;700;51.906;8.404;2022-11-24T22:57:46;12.67;;;8.30;;
1410;SDS011;700;51.906;8.404;2022-11-24T23:02:46;13.13;;;7.07;;
1410;SDS011;700;51.906;8.404;2022-11-24T23:07:47;12.30;;;6.20;;
1410;SDS011;700;51.906;8.404;2022-11-24T23:12:53;14.73;;;8.53;;
1410;SDS011;700;51.906;8.404;2022-11-24T23:17:58;15.17;;;7.83;;
1410;SDS011;700;51.906;8.404;2022-11-24T23:22:59;13.93;;;6.80;;
1410;SDS011;700;51.906;8.404;2022-11-24T23:28:02;12.00;;;7.00;;
1410;SDS011;700;51.906;8.404;2022-11-24T23:33:03;14.10;;;7.07;;
1410;SDS011;700;51.906;8.404;2022-11-24T23:38:04;13.17;;;8.17;;
1410;SDS011;700;51.906;8.404;2022-11-24T23:43:07;16.00;;;7.40;;
1410;SDS011;700;51.906;8.404;2022-11-24T23:48:10;7.50;;;5.90;;
1410;SDS011;700;51.906;8.404;2022-11-24T23:53:18;13.90;;;8.60;;
1410;SDS011;700;51.906;8.404;2022-11-24T23:58:19;19.90;;;7.57;;
